Time;durP1;ratioP1;P1;durP2;ratioP2;P2;SDS_P1;SDS_P2;PMS_P1;PMS_P2;Temp;Humidity;BMP_temperature;BMP_pressure;BME280_temperature;BME280_humidity;BME280_pressure;Samples;Min_cycle;Max_cycle;Signal;HPM_P1;HPM_P2
2022/08/01 00:00:23;;;;;;;;;2.00;2.00;;;;;22.09;67.94;100702.66;5029823;28;46153;-79
2022/08/01 00:02:49;;;;;;;;;3.67;3.67;;;;;21.90;68.22;100681.63;5026973;28;45481;-78
2022/08/01 00:05:15;;;;;;;;;3.00;2.67;;;;;22.04;68.41;100706.28;5025755;28;45460;-78
2022/08/01 00:07:40;;;;;;;;;2.00;2.00;;;;;22.18;68.51;100737.09;5023891;28;45596;-79
2022/08/01 00:10:09;;;;;;;;;2.33;2.33;;;;;22.05;69.85;100733.75;5021449;28;45926;-79
2022/08/01 00:12:36;;;;;;;;;3.00;3.00;;;;;21.92;68.69;100706.41;5023213;28;45576;-79
2022/08/01 00:15:02;;;;;;;;;4.00;2.00;;;;;22.07;68.80;100726.63;5017675;28;45331;-79
2022/08/01 00:17:27;;;;;;;;;3.00;2.00;;;;;22.03;68.99;100723.13;5023648;28;45353;-78
2022/08/01 00:19:53;;;;;;;;;3.67;3.00;;;;;22.03;68.99;100723.13;5032625;28;45405;-78
2022/08/01 00:22:19;;;;;;;;;2.00;2.00;;;;;22.07;68.63;100720.44;5028652;28;45513;-79
2022/08/01 00:24:44;;;;;;;;;4.00;4.00;;;;;22.01;68.89;100714.28;5036838;28;45516;-80
2022/08/01 00:27:10;;;;;;;;;2.33;2.33;;;;;22.00;69.78;100722.28;5037303;28;45457;-78
2022/08/01 00:29:35;;;;;;;;;3.00;2.00;;;;;21.98;69.67;100724.94;5036776;28;46006;-78
2022/08/01 00:32:01;;;;;;;;;4.00;3.33;;;;;21.97;70.34;100714.34;5036682;28;45491;-78
2022/08/01 00:34:26;;;;;;;;;2.67;2.67;;;;;21.96;69.68;100712.59;5020285;28;45378;-79
2022/08/01 00:36:52;;;;;;;;;3.00;2.67;;;;;21.13;70.09;100563.06;5017079;28;45493;-79
2022/08/01 00:39:17;;;;;;;;;2.00;2.00;;;;;21.93;70.28;100713.50;5034915;28;45345;-79
2022/08/01 00:41:43;;;;;;;;;2.00;2.00;;;;;21.85;69.84;100691.47;5036566;28;45474;-78
2022/08/01 00:44:08;;;;;;;;;2.33;2.33;;;;;21.93;69.85;100708.19;5036869;28;45373;-80
2022/08/01 00:46:34;;;;;;;;;3.00;3.00;;;;;21.75;69.69;100674.75;5037004;28;45465;-79
2022/08/01 00:49:01;;;;;;;;;2.33;2.00;;;;;21.83;70.18;100685.28;5024310;28;45375;-78
2022/08/01 00:51:27;;;;;;;;;4.00;2.67;;;;;21.94;70.24;100709.94;5020179;28;45499;-79
2022/08/01 00:53:54;;;;;;;;;3.00;3.00;;;;;21.98;70.11;100703.66;5019617;28;46000;-78
2022/08/01 00:56:21;;;;;;;;;3.00;3.00;;;;;21.27;69.53;100565.53;5020198;28;45548;-79
2022/08/01 00:58:47;;;;;;;;;3.00;3.00;;;;;21.68;69.79;100627.00;5019097;28;46626;-79
2022/08/01 01:01:12;;;;;;;;;2.67;2.67;;;;;22.03;69.50;100683.22;5031529;28;45327;-79
2022/08/01 01:03:38;;;;;;;;;2.33;2.33;;;;;22.21;68.68;100699.81;5020566;28;45492;-77
2022/08/01 01:06:18;;;;;;;;;3.00;3.00;;;;;22.24;69.12;100692.69;5019861;28;45738;-78
2022/08/01 01:09:00;;;;;;;;;2.00;2.00;;;;;22.30;69.17;100696.13;5034520;28;47339;-79
2022/08/01 01:11:32;;;;;;;;;3.00;3.00;;;;;22.19;68.51;100667.88;5019675;28;45371;-79
2022/08/01 01:14:10;;;;;;;;;4.00;3.00;;;;;22.37;68.29;100698.69;5020002;28;45452;-79
2022/08/01 01:16:40;;;;;;;;;3.00;2.67;;;;;22.09;68.12;100638.81;5019819;28;45295;-79
2022/08/01 01:19:11;;;;;;;;;2.33;2.00;;;;;22.41;68.61;100689.75;5019137;28;46217;-79
2022/08/01 01:21:50;;;;;;;;;3.00;2.00;;;;;22.38;68.80;100700.47;5021298;28;45474;-79
2022/08/01 01:24:43;;;;;;;;;3.00;3.00;;;;;22.41;67.96;100694.19;5030018;28;45425;-79
2022/08/01 01:27:28;;;;;;;;;3.33;3.00;;;;;22.43;68.76;100695.03;5018706;28;45424;-78
2022/08/01 01:29:56;;;;;;;;;2.33;2.00;;;;;22.37;68.49;100682.72;5018618;28;46088;-79
2022/08/01 01:32:25;;;;;;;;;3.00;3.00;;;;;22.39;68.59;100682.69;5019100;28;45493;-79
2022/08/01 01:34:54;;;;;;;;;2.33;2.33;;;;;22.08;68.26;100637.03;5034922;28;45632;-79
2022/08/01 01:37:22;;;;;;;;;3.00;2.33;;;;;22.38;68.16;100695.13;5034860;28;45578;-79
2022/08/01 01:39:51;;;;;;;;;3.67;2.67;;;;;22.27;68.10;100685.56;5050354;28;45785;-79
2022/08/01 01:42:18;;;;;;;;;2.00;2.00;;;;;22.41;68.43;100700.38;5018403;28;45488;-79
2022/08/01 01:44:46;;;;;;;;;2.00;2.00;;;;;22.47;68.15;100699.41;5033929;28;45451;-79
2022/08/01 01:47:17;;;;;;;;;2.00;2.00;;;;;22.34;67.78;100676.56;5023071;28;45228;-79
2022/08/01 01:49:46;;;;;;;;;3.33;2.00;;;;;22.51;67.79;100700.25;5028424;28;45616;-79
2022/08/01 01:52:16;;;;;;;;;3.00;3.00;;;;;22.47;68.88;100693.22;5018156;28;45438;-79
2022/08/01 01:54:47;;;;;;;;;2.00;2.00;;;;;22.15;69.56;100670.63;5035648;28;45376;-80
2022/08/01 01:57:16;;;;;;;;;3.00;2.00;;;;;21.59;69.26;100596.13;5038107;28;45717;-79
2022/08/01 01:59:43;;;;;;;;;3.00;3.00;;;;;22.07;70.30;100697.34;5026234;28;45421;-79
2022/08/01 02:02:11;;;;;;;;;2.33;2.33;;;;;22.04;69.50;100694.72;5033688;28;45484;-79
2022/08/01 02:04:44;;;;;;;;;4.00;3.33;;;;;21.98;69.58;100685.03;5034219;28;45396;-79
2022/08/01 02:07:13;;;;;;;;;5.00;4.00;;;;;21.72;69.73;100655.31;5018499;28;45632;-79
2022/08/01 02:09:41;;;;;;;;;2.33;2.33;;;;;21.67;70.63;100644.75;5017905;28;46270;-78
2022/08/01 02:12:11;;;;;;;;;3.00;2.67;;;;;21.67;70.61;100651.84;5033258;28;45487;-78
2022/08/01 02:14:42;;;;;;;;;2.00;2.00;;;;;21.89;70.80;100690.53;5018670;28;45496;-79
2022/08/01 02:17:11;;;;;;;;;3.00;2.67;;;;;21.63;71.06;100659.84;5032829;28;45422;-78
2022/08/01 02:19:37;;;;;;;;;2.67;2.00;;;;;21.43;71.23;100633.56;5038486;28;46060;-78
2022/08/01 02:22:13;;;;;;;;;3.33;3.33;;;;;21.78;71.62;100695.09;5038812;28;45294;-79
2022/08/01 02:25:24;;;;;;;;;3.00;3.00;;;;;21.78;71.26;100693.31;5038735;28;45399;-78
2022/08/01 02:28:03;;;;;;;;;3.00;2.33;;;;;21.79;71.10;100684.44;5034495;28;45460;-78
2022/08/01 02:30:36;;;;;;;;;4.00;3.00;;;;;21.77;71.29;100680.94;5037037;28;45332;-79
2022/08/01 02:33:06;;;;;;;;;4.33;4.00;;;;;21.83;71.20;100685.28;5038348;28;45435;-78
2022/08/01 02:35:35;;;;;;;;;4.00;3.67;;;;;21.82;70.86;100678.19;5038532;28;45509;-79
2022/08/01 02:38:03;;;;;;;;;3.00;3.00;;;;;21.95;70.15;100678.91;5038743;28;45487;-79
2022/08/01 02:40:32;;;;;;;;;3.33;3.33;;;;;22.08;70.12;100679.59;5070375;28;46444;-79
2022/08/01 02:43:02;;;;;;;;;4.00;3.33;;;;;22.13;69.73;100683.94;5028096;28;45487;-78
2022/08/01 02:45:29;;;;;;;;;3.00;3.00;;;;;21.99;69.89;100657.56;5018123;28;45394;-79
2022/08/01 02:48:01;;;;;;;;;4.00;3.33;;;;;22.24;69.35;100682.03;5018137;28;45480;-78
2022/08/01 02:50:28;;;;;;;;;3.00;2.33;;;;;22.28;69.06;100672.19;5017855;28;45648;-78
2022/08/01 02:52:55;;;;;;;;;3.00;3.00;;;;;22.25;69.97;100680.25;5017658;28;45436;-78
2022/08/01 02:55:22;;;;;;;;;3.00;3.00;;;;;22.10;70.01;100665.34;5017760;28;45720;-78
2022/08/01 02:57:51;;;;;;;;;3.00;3.00;;;;;22.09;69.90;100665.41;5024987;28;45384;-78
2022/08/01 03:00:17;;;;;;;;;3.00;2.00;;;;;21.85;69.96;100633.84;5036560;28;45472;-79
2022/08/01 03:02:44;;;;;;;;;3.33;3.33;;;;;22.11;69.94;100668.94;5036507;28;45324;-78
2022/08/01 03:05:12;;;;;;;;;3.00;3.00;;;;;21.98;70.40;100646.94;5036986;28;45587;-77
2022/08/01 03:07:39;;;;;;;;;4.00;3.67;;;;;22.09;69.71;100662.75;5037082;28;45550;-78
2022/08/01 03:10:05;;;;;;;;;4.00;3.33;;;;;22.12;69.94;100668.00;5036975;28;45401;-78
2022/08/01 03:12:33;;;;;;;;;3.00;3.00;;;;;22.14;70.19;100663.53;5034364;28;45414;-78
2022/08/01 03:15:02;;;;;;;;;3.00;3.00;;;;;22.17;69.55;100669.69;5035630;28;45273;-78
2022/08/01 03:17:29;;;;;;;;;3.00;2.33;;;;;22.25;69.52;100664.28;5036526;28;46046;-77
2022/08/01 03:19:57;;;;;;;;;2.33;2.33;;;;;22.30;69.41;100664.19;5035573;28;45655;-78
2022/08/01 03:22:26;;;;;;;;;4.00;3.67;;;;;22.22;69.35;100640.34;5034273;28;45488;-78
2022/08/01 03:24:53;;;;;;;;;3.00;3.00;;;;;22.39;69.33;100669.38;5036383;28;45595;-79
2022/08/01 03:27:24;;;;;;;;;3.00;2.67;;;;;22.38;69.50;100665.84;5032204;28;45441;-79
2022/08/01 03:29:51;;;;;;;;;3.00;3.00;;;;;22.37;69.39;100660.53;5017083;28;45512;-78
2022/08/01 03:32:19;;;;;;;;;3.67;3.67;;;;;22.29;69.50;100651.81;5027643;28;45346;-76
2022/08/01 03:34:45;;;;;;;;;3.00;3.00;;;;;22.38;69.01;100656.97;5034110;28;45436;-79
2022/08/01 03:37:22;;;;;;;;;3.00;3.00;;;;;22.30;69.04;100638.47;5036692;28;45425;-76
2022/08/01 03:39:54;;;;;;;;;3.00;3.00;;;;;22.48;69.45;100660.34;5034080;28;46187;-76
2022/08/01 03:42:23;;;;;;;;;3.67;3.00;;;;;22.49;68.67;100662.13;5034503;28;45429;-76
2022/08/01 03:45:03;;;;;;;;;3.33;3.33;;;;;22.41;69.40;100649.81;5036291;28;45364;-76
2022/08/01 03:47:34;;;;;;;;;4.00;4.00;;;;;22.23;69.20;100631.47;5034210;28;45348;-76
2022/08/01 03:50:02;;;;;;;;;5.00;3.33;;;;;22.31;69.47;100655.34;5035827;28;45420;-78
2022/08/01 03:52:30;;;;;;;;;3.00;3.00;;;;;22.11;70.02;100627.22;5036105;28;45532;-77
2022/08/01 03:55:00;;;;;;;;;3.67;3.67;;;;;22.19;69.77;100640.41;5036159;28;45467;-79
2022/08/01 03:57:28;;;;;;;;;3.00;3.00;;;;;22.18;69.31;100647.53;5030983;28;45416;-77
2022/08/01 03:59:56;;;;;;;;;3.00;2.67;;;;;22.28;69.57;100658.91;5035675;28;45381;-77
2022/08/01 04:02:23;;;;;;;;;4.33;3.00;;;;;22.29;69.16;100651.81;5036081;28;45427;-77
2022/08/01 04:04:48;;;;;;;;;2.67;2.67;;;;;22.29;69.18;100654.47;5036220;28;45491;-77
2022/08/01 04:07:29;;;;;;;;;3.67;3.67;;;;;22.30;69.48;100653.56;5036292;28;45336;-77
2022/08/01 04:09:55;;;;;;;;;4.00;3.00;;;;;22.32;69.32;100655.31;5035933;28;45994;-77
2022/08/01 04:12:21;;;;;;;;;4.67;4.00;;;;;22.21;69.31;100639.47;5034645;28;45508;-77
2022/08/01 04:14:48;;;;;;;;;3.00;3.00;;;;;22.26;69.98;100658.03;5034970;28;45576;-77
2022/08/01 04:17:14;;;;;;;;;3.00;3.00;;;;;22.22;69.68;100657.22;5035891;28;45619;-76
2022/08/01 04:19:40;;;;;;;;;3.00;3.00;;;;;22.24;69.83;100657.19;5035753;28;45457;-77
2022/08/01 04:22:08;;;;;;;;;4.00;3.67;;;;;22.06;70.51;100645.03;5036052;28;45430;-77
2022/08/01 04:24:36;;;;;;;;;5.00;5.00;;;;;21.95;70.89;100637.22;5039578;28;45583;-77
2022/08/01 04:27:09;;;;;;;;;3.00;3.00;;;;;22.00;71.07;100656.69;5037825;28;45765;-76
2022/08/01 04:29:37;;;;;;;;;4.00;4.00;;;;;21.88;71.85;100661.28;5039817;28;45273;-77
2022/08/01 04:32:06;;;;;;;;;3.00;2.67;;;;;21.75;71.75;100634.00;5040006;28;45502;-77
2022/08/01 04:34:33;;;;;;;;;3.33;3.00;;;;;21.85;70.70;100636.50;5039518;28;45441;-75
2022/08/01 04:37:01;;;;;;;;;5.00;4.00;;;;;22.03;70.21;100659.28;5040218;28;45501;-77
2022/08/01 04:39:30;;;;;;;;;4.33;4.33;;;;;22.10;70.21;100662.69;5039766;28;46257;-76
2022/08/01 04:41:59;;;;;;;;;4.00;4.00;;;;;22.14;70.06;100664.41;5038508;28;45446;-76
2022/08/01 04:44:27;;;;;;;;;3.33;3.33;;;;;22.15;69.99;100662.66;5019548;28;45478;-77
2022/08/01 04:46:54;;;;;;;;;4.00;3.33;;;;;21.93;69.68;100620.41;5019800;28;45406;-77
2022/08/01 04:49:21;;;;;;;;;4.00;4.00;;;;;22.19;70.08;100659.03;5019367;28;46150;-77
2022/08/01 04:51:51;;;;;;;;;4.00;3.00;;;;;21.84;69.92;100607.25;5019619;28;45608;-77
2022/08/01 04:54:17;;;;;;;;;3.67;3.00;;;;;22.13;70.54;100664.47;5019732;28;45513;-77
2022/08/01 04:56:42;;;;;;;;;3.67;3.00;;;;;21.96;70.98;100641.63;5022558;28;45562;-77
2022/08/01 05:01:52;;;;;;;;;5.00;4.67;;;;;22.11;70.61;100676.91;5024510;28;45355;-77
2022/08/01 05:04:18;;;;;;;;;5.00;4.00;;;;;22.01;70.87;100673.50;5019455;28;45502;-76
2022/08/01 05:06:43;;;;;;;;;4.33;3.00;;;;;22.05;70.41;100683.19;5020070;28;45276;-74
2022/08/01 05:09:09;;;;;;;;;2.33;2.33;;;;;22.04;70.37;100678.75;5019769;28;45993;-79
2022/08/01 05:11:35;;;;;;;;;5.00;4.00;;;;;21.82;70.63;100633.00;5020995;28;45862;-79
2022/08/01 05:14:00;;;;;;;;;4.00;4.00;;;;;21.97;70.56;100670.00;5039288;28;45463;-76
2022/08/01 05:16:26;;;;;;;;;3.00;3.00;;;;;21.90;70.96;100665.66;5039528;28;45252;-76
2022/08/01 05:18:52;;;;;;;;;4.50;4.50;;;;;21.10;70.87;100528.56;5038997;28;45429;-79
2022/08/01 05:21:17;;;;;;;;;4.67;4.67;;;;;21.92;71.06;100666.53;5038503;28;45497;-76
2022/08/01 05:23:43;;;;;;;;;5.00;3.33;;;;;21.93;70.77;100675.41;5039396;28;45413;-79
2022/08/01 05:26:10;;;;;;;;;5.33;4.67;;;;;21.92;70.54;100674.50;5039330;28;45500;-79
2022/08/01 05:28:35;;;;;;;;;3.33;3.33;;;;;21.75;70.86;100647.31;5037528;28;45477;-74
2022/08/01 05:31:01;;;;;;;;;4.33;4.00;;;;;21.98;70.35;100677.06;5018545;28;45411;-77
2022/08/01 05:33:26;;;;;;;;;4.00;4.00;;;;;21.98;70.38;100671.75;5018869;28;45449;-77
2022/08/01 05:35:52;;;;;;;;;3.00;3.00;;;;;22.07;69.78;100675.19;5033666;28;45546;-76
2022/08/01 05:38:18;;;;;;;;;5.00;4.00;;;;;21.78;70.70;100637.47;5034474;28;45378;-77
2022/08/01 05:40:43;;;;;;;;;5.33;5.33;;;;;21.81;71.37;100669.34;5039343;28;45166;-77
2022/08/01 05:43:09;;;;;;;;;5.00;4.00;;;;;21.85;71.62;100684.38;5035112;28;45579;-76
2022/08/01 05:45:34;;;;;;;;;6.00;5.00;;;;;21.98;70.30;100684.19;5035561;28;45457;-77
2022/08/01 05:48:00;;;;;;;;;4.00;4.00;;;;;22.13;70.23;100691.06;5035626;28;45944;-77
2022/08/01 05:50:25;;;;;;;;;4.00;4.00;;;;;22.27;69.45;100686.44;5034304;28;45460;-77
2022/08/01 05:52:51;;;;;;;;;5.00;4.33;;;;;22.39;69.00;100694.22;5037136;28;45468;-77
2022/08/01 05:55:16;;;;;;;;;3.00;3.00;;;;;22.34;68.86;100664.16;5035995;28;45507;-74
2022/08/01 05:57:42;;;;;;;;;4.33;4.00;;;;;22.59;68.30;100693.00;5018490;28;46142;-77
2022/08/01 06:00:08;;;;;;;;;4.00;3.33;;;;;22.72;67.70;100689.22;5018532;28;45500;-78
2022/08/01 06:02:33;;;;;;;;;3.00;3.00;;;;;22.90;67.89;100685.34;5018794;28;45429;-78
2022/08/01 06:04:59;;;;;;;;;0.00;0.00;;;;;22.86;67.29;100656.13;5018788;28;45418;-78
2022/08/01 06:07:25;;;;;;;;;3.00;3.00;;;;;23.11;67.12;100689.41;5018877;28;45485;-77
2022/08/01 06:09:50;;;;;;;;;4.67;4.67;;;;;23.20;66.83;100683.91;5018735;28;45302;-77
2022/08/01 06:12:16;;;;;;;;;5.00;5.00;;;;;23.17;66.40;100653.75;5034876;28;45239;-79
2022/08/01 06:14:41;;;;;;;;;6.00;4.00;;;;;23.41;65.94;100687.91;5037226;28;45539;-79
2022/08/01 06:17:07;;;;;;;;;4.00;4.00;;;;;23.57;65.41;100682.25;5037554;28;45371;-79
2022/08/01 06:19:32;;;;;;;;;5.00;4.00;;;;;23.56;65.46;100660.03;5036157;28;45519;-77
2022/08/01 06:21:58;;;;;;;;;3.67;3.67;;;;;23.81;64.73;100681.75;5037878;28;45492;-77
2022/08/01 06:24:23;;;;;;;;;4.33;4.33;;;;;23.94;64.99;100690.34;5038178;28;45520;-77
2022/08/01 06:26:49;;;;;;;;;5.00;5.00;;;;;23.97;64.63;100684.94;5021659;28;45480;-76
2022/08/01 06:29:15;;;;;;;;;4.33;4.33;;;;;24.00;63.89;100690.19;5021091;28;45380;-77
2022/08/01 06:31:40;;;;;;;;;5.00;5.00;;;;;24.01;63.98;100685.72;5029931;28;45406;-77
2022/08/01 06:34:06;;;;;;;;;5.67;5.00;;;;;23.99;63.67;100684.91;5028863;28;45350;-79
2022/08/01 06:36:31;;;;;;;;;5.33;5.33;;;;;23.87;64.12;100688.72;5021999;28;46124;-77
2022/08/01 06:38:57;;;;;;;;;5.33;4.67;;;;;23.94;64.57;100685.00;5017782;28;45429;-76
2022/08/01 06:41:23;;;;;;;;;5.00;5.00;;;;;23.98;64.29;100685.81;5017985;28;45343;-77
2022/08/01 06:43:49;;;;;;;;;7.00;6.00;;;;;24.05;64.03;100686.53;5032423;28;45472;-77
2022/08/01 06:46:14;;;;;;;;;5.00;4.67;;;;;24.05;63.72;100689.22;5035575;28;45476;-77
2022/08/01 06:48:40;;;;;;;;;5.00;5.00;;;;;24.08;63.74;100686.50;5020496;28;45436;-77
2022/08/01 06:51:08;;;;;;;;;5.00;5.00;;;;;24.45;63.48;100688.25;5036713;28;45561;-76
2022/08/01 06:53:36;;;;;;;;;4.67;4.33;;;;;24.88;62.10;100684.50;5027743;28;45504;-77
2022/08/01 06:56:02;;;;;;;;;6.00;6.00;;;;;25.28;60.55;100678.06;5029662;28;46090;-74
2022/08/01 06:58:27;;;;;;;;;5.00;5.00;;;;;25.52;60.09;100674.66;5036117;28;45452;-77
2022/08/01 07:00:53;;;;;;;;;5.00;5.00;;;;;25.67;59.40;100665.31;5031908;28;45617;-76
2022/08/01 07:03:18;;;;;;;;;5.00;5.00;;;;;25.80;59.01;100673.81;5017717;28;45383;-77
2022/08/01 07:05:44;;;;;;;;;5.00;5.00;;;;;25.81;58.84;100664.88;5017317;28;45548;-77
2022/08/01 07:08:09;;;;;;;;;7.00;6.00;;;;;25.89;58.37;100686.06;5032746;28;45394;-78
2022/08/01 07:10:35;;;;;;;;;5.67;5.67;;;;;25.84;58.58;100680.81;5036213;28;45512;-76
2022/08/01 07:13:00;;;;;;;;;8.00;7.67;;;;;25.75;58.02;100679.31;5028232;28;45643;-78
2022/08/01 07:15:26;;;;;;;;;8.00;7.00;;;;;25.61;58.04;100665.50;5029138;28;45784;-75
2022/08/01 07:17:52;;;;;;;;;9.00;8.00;;;;;25.67;57.92;100669.78;5020382;28;45386;-75
2022/08/01 07:20:18;;;;;;;;;6.00;6.00;;;;;25.59;58.11;100676.25;5017294;28;45577;-78
2022/08/01 07:22:43;;;;;;;;;8.00;6.33;;;;;25.54;58.97;100674.63;5025170;28;45525;-74
2022/08/01 07:25:09;;;;;;;;;8.00;7.00;;;;;25.45;57.34;100657.06;5029287;28;45459;-78
2022/08/01 07:27:36;;;;;;;;;9.00;8.33;;;;;25.39;57.08;100659.91;5042942;28;45543;-77
2022/08/01 07:30:01;;;;;;;;;7.00;7.00;;;;;25.36;57.07;100678.72;5032087;28;45802;-77
2022/08/01 07:32:29;;;;;;;;;10.33;10.33;;;;;25.23;57.91;100679.97;5016925;28;45759;-76
2022/08/01 07:34:54;;;;;;;;;8.00;8.00;;;;;25.06;57.93;100680.44;5017886;28;46230;-78
2022/08/01 07:37:20;;;;;;;;;10.00;10.00;;;;;24.74;58.66;100656.34;5031921;28;45526;-77
2022/08/01 07:39:45;;;;;;;;;8.33;7.33;;;;;24.64;58.63;100638.81;5036009;28;45519;-77
2022/08/01 07:42:11;;;;;;;;;9.33;9.00;;;;;24.86;58.84;100679.19;5030901;28;45463;-79
2022/08/01 07:44:36;;;;;;;;;10.33;8.33;;;;;24.80;59.13;100679.34;5035214;28;45596;-79
2022/08/01 07:47:03;;;;;;;;;8.33;8.33;;;;;24.90;59.20;100677.31;5034899;28;45294;-79
2022/08/01 07:49:28;;;;;;;;;8.00;7.00;;;;;24.32;58.98;100565.75;5030991;28;45310;-79
2022/08/01 07:51:54;;;;;;;;;10.33;9.00;;;;;25.05;58.29;100659.97;5033111;28;45457;-78
2022/08/01 07:54:20;;;;;;;;;8.00;7.33;;;;;24.53;58.68;100624.84;5034306;28;46630;-78
2022/08/01 07:56:46;;;;;;;;;8.00;6.33;;;;;24.73;58.26;100670.63;5033346;28;45592;-78
2022/08/01 07:59:12;;;;;;;;;9.00;7.33;;;;;24.67;58.06;100652.09;5027786;28;45703;-77
2022/08/01 08:01:37;;;;;;;;;8.67;8.00;;;;;24.91;57.56;100673.69;5030183;28;45624;-78
2022/08/01 08:04:03;;;;;;;;;8.00;8.00;;;;;25.03;57.49;100657.34;5031045;28;46272;-78
2022/08/01 08:06:28;;;;;;;;;10.67;9.67;;;;;24.41;57.06;100540.59;5030058;28;45456;-79
2022/08/01 08:08:54;;;;;;;;;9.67;9.00;;;;;25.17;57.68;100657.84;5031145;28;45517;-78
2022/08/01 08:11:20;;;;;;;;;9.00;8.33;;;;;25.33;56.97;100654.75;5033764;28;45442;-78
2022/08/01 08:13:45;;;;;;;;;9.00;8.00;;;;;25.54;56.80;100656.75;5032759;28;45985;-77
2022/08/01 08:16:11;;;;;;;;;11.00;10.33;;;;;25.51;56.09;100656.88;5030621;28;45482;-77
2022/08/01 08:18:38;;;;;;;;;11.00;10.00;;;;;25.12;56.41;100602.75;5030106;28;45504;-78
2022/08/01 08:21:03;;;;;;;;;14.00;11.33;;;;;25.50;56.25;100647.06;5031281;28;45830;-78
2022/08/01 08:26:13;;;;;;;;;10.67;9.00;;;;;25.68;55.65;100639.41;5031447;28;45722;-78
2022/08/01 08:28:38;;;;;;;;;9.67;9.00;;;;;25.83;55.11;100646.97;5033685;28;45539;-77
2022/08/01 08:31:04;;;;;;;;;9.67;9.67;;;;;25.73;54.97;100626.78;5033020;28;45473;-79
2022/08/01 08:33:30;;;;;;;;;12.00;10.67;;;;;25.75;54.96;100639.19;5032023;28;45521;-77
2022/08/01 08:35:55;;;;;;;;;9.67;9.33;;;;;25.91;55.17;100634.25;5030549;28;46363;-77
2022/08/01 08:38:21;;;;;;;;;9.67;8.67;;;;;26.15;54.38;100637.91;5032825;28;45471;-79
2022/08/01 08:40:47;;;;;;;;;10.00;9.33;;;;;26.44;53.81;100645.91;5031617;28;45339;-77
2022/08/01 08:43:13;;;;;;;;;13.00;11.00;;;;;26.56;52.93;100643.69;5029541;28;46209;-79
2022/08/01 08:45:39;;;;;;;;;12.00;10.00;;;;;25.84;53.03;100539.00;5033587;28;45557;-79
2022/08/01 08:48:06;;;;;;;;;7.67;7.67;;;;;26.62;53.48;100631.91;5033779;28;45460;-78
2022/08/01 08:50:32;;;;;;;;;7.67;7.67;;;;;26.88;52.66;100640.81;5017973;28;45321;-79
2022/08/01 08:53:01;;;;;;;;;10.33;10.00;;;;;26.92;52.09;100600.44;5031864;28;45650;-81
2022/08/01 08:55:28;;;;;;;;;9.33;9.33;;;;;27.21;51.33;100645.88;5044775;28;45579;-78
2022/08/01 08:57:54;;;;;;;;;11.00;9.00;;;;;27.02;50.78;100614.38;5018558;28;45493;-82
2022/08/01 09:00:20;;;;;;;;;10.67;10.00;;;;;27.40;50.63;100648.75;5021891;28;45801;-78
2022/08/01 09:02:48;;;;;;;;;9.33;9.00;;;;;27.19;50.86;100646.78;5031679;28;45366;-80
2022/08/01 09:05:15;;;;;;;;;11.00;10.67;;;;;26.93;51.41;100645.06;5031686;28;45529;-80
2022/08/01 09:07:40;;;;;;;;;13.00;12.00;;;;;27.03;51.61;100658.16;5030126;28;46000;-80
2022/08/01 09:10:07;;;;;;;;;10.00;10.00;;;;;27.16;51.07;100646.91;5032591;28;45672;-79
2022/08/01 09:12:32;;;;;;;;;12.00;11.00;;;;;27.33;50.86;100646.28;5036262;28;46707;-79
2022/08/01 09:14:58;;;;;;;;;11.67;9.00;;;;;27.43;50.52;100621.81;5035682;28;45567;-79
2022/08/01 09:17:24;;;;;;;;;12.67;11.33;;;;;27.80;49.42;100640.03;5034689;28;45271;-79
2022/08/01 09:19:54;;;;;;;;;2.00;1.67;;;;;28.13;48.33;100645.88;5035444;28;45317;-77
2022/08/01 09:22:23;;;;;;;;;12.00;11.33;;;;;28.76;47.07;100645.88;5036492;28;45548;-80
2022/08/01 09:25:08;;;;;;;;;11.33;11.33;;;;;28.98;46.38;100638.66;5031161;28;45487;-78
2022/08/01 09:27:38;;;;;;;;;12.00;12.00;;;;;29.19;45.80;100620.69;5031543;28;45406;-76
2022/08/01 09:30:15;;;;;;;;;12.33;12.33;;;;;29.62;44.87;100637.50;5016987;28;45500;-76
2022/08/01 09:32:55;;;;;;;;;12.00;11.00;;;;;31.23;41.34;100640.09;5016094;28;45403;-76
2022/08/01 09:35:25;;;;;;;;;13.00;13.00;;;;;32.00;39.20;100645.75;5032965;28;45445;-76
2022/08/01 09:37:51;;;;;;;;;9.33;9.33;;;;;32.52;39.05;100645.41;5016260;28;45648;-76
2022/08/01 09:40:16;;;;;;;;;11.00;11.00;;;;;33.78;38.32;100642.94;5026209;28;45529;-76
2022/08/01 09:42:43;;;;;;;;;11.00;10.33;;;;;34.59;36.57;100614.91;5021318;28;46048;-76
2022/08/01 09:45:08;;;;;;;;;13.67;13.33;;;;;34.93;34.96;100647.00;5035434;28;45436;-77
2022/08/01 09:47:40;;;;;;;;;12.33;12.00;;;;;34.72;34.19;100571.56;5035295;28;45537;-76
2022/08/01 09:50:07;;;;;;;;;13.00;12.00;;;;;35.13;34.18;100629.28;5027936;28;45421;-77
2022/08/01 09:52:33;;;;;;;;;14.67;12.67;;;;;34.82;34.36;100645.06;5021643;28;46216;-77
2022/08/01 09:55:01;;;;;;;;;17.00;13.67;;;;;35.39;33.94;100622.00;5027433;28;45519;-76
2022/08/01 09:57:28;;;;;;;;;10.00;10.00;;;;;34.89;33.80;100649.06;5031905;28;45675;-77
2022/08/01 09:59:56;;;;;;;;;13.00;12.00;;;;;34.44;34.65;100644.00;5031254;28;45568;-77
2022/08/01 10:02:39;;;;;;;;;13.33;12.33;;;;;33.94;35.81;100622.97;5034046;28;46017;-77
2022/08/01 10:05:07;;;;;;;;;15.00;14.00;;;;;33.86;35.96;100648.75;5035860;28;45532;-77
2022/08/01 10:07:34;;;;;;;;;12.33;12.33;;;;;33.14;36.96;100647.09;5031853;28;45817;-79
2022/08/01 10:10:14;;;;;;;;;11.00;10.67;;;;;32.90;37.20;100648.47;5034402;28;45447;-78
2022/08/01 10:12:41;;;;;;;;;8.67;8.67;;;;;32.82;38.05;100631.84;5032793;28;45448;-80
2022/08/01 10:15:09;;;;;;;;;9.00;9.00;;;;;32.43;38.18;100613.50;5033491;28;45452;-79
2022/08/01 10:17:36;;;;;;;;;10.33;9.33;;;;;33.36;36.70;100623.09;5022260;28;45589;-82
2022/08/01 10:20:03;;;;;;;;;9.67;9.33;;;;;34.02;35.49;100610.66;5032101;28;45352;-81
2022/08/01 10:22:31;;;;;;;;;11.33;11.00;;;;;35.16;34.74;100643.56;5033711;28;45404;-79
2022/08/01 10:25:01;;;;;;;;;11.33;10.67;;;;;35.41;33.32;100634.47;5034823;28;45580;-80
2022/08/01 10:27:32;;;;;;;;;10.00;10.00;;;;;36.11;32.50;100643.84;5034354;28;45537;-79
2022/08/01 10:30:07;;;;;;;;;12.67;11.67;;;;;36.58;31.88;100646.63;5030951;28;45471;-79
2022/08/01 10:32:37;;;;;;;;;11.67;10.67;;;;;36.68;31.25;100635.91;5016716;28;46495;-79
2022/08/01 10:35:07;;;;;;;;;10.67;10.67;;;;;36.95;30.79;100552.06;5030686;28;45468;-79
2022/08/01 10:37:35;;;;;;;;;11.00;11.00;;;;;37.53;29.68;100628.16;5024796;28;45338;-81
2022/08/01 10:40:01;;;;;;;;;8.00;8.00;;;;;36.88;30.73;100643.38;5035763;28;45592;-80
2022/08/01 10:42:27;;;;;;;;;11.00;10.33;;;;;37.22;30.21;100641.56;5033745;28;45504;-81
2022/08/01 10:44:55;;;;;;;;;10.00;10.00;;;;;37.36;30.39;100642.31;5034696;28;45916;-80
2022/08/01 10:47:28;;;;;;;;;10.33;10.00;;;;;37.29;30.13;100633.78;5033934;28;45507;-80
2022/08/01 10:50:04;;;;;;;;;9.33;9.33;;;;;37.75;29.87;100610.06;5030498;28;45537;-79
2022/08/01 10:52:29;;;;;;;;;10.00;9.67;;;;;37.99;29.71;100629.81;5035172;28;45705;-82
2022/08/01 10:55:11;;;;;;;;;12.33;11.33;;;;;37.54;29.96;100634.47;5034262;28;45616;-80
2022/08/01 10:57:47;;;;;;;;;8.00;8.00;;;;;37.67;29.55;100635.25;5031945;28;45566;-80
2022/08/01 11:00:20;;;;;;;;;9.67;8.00;;;;;37.64;29.52;100613.66;5027444;28;45731;-81
2022/08/01 11:03:00;;;;;;;;;9.00;9.00;;;;;38.34;29.05;100625.97;5032542;28;46272;-81
2022/08/01 11:05:30;;;;;;;;;7.00;7.00;;;;;38.32;28.73;100594.34;5031881;28;45362;-79
2022/08/01 11:08:01;;;;;;;;;7.33;7.33;;;;;38.43;29.57;100631.63;5032474;28;45501;-80
2022/08/01 11:10:44;;;;;;;;;9.00;8.67;;;;;38.55;29.64;100627.88;5033708;28;45539;-79
2022/08/01 11:13:11;;;;;;;;;8.00;7.67;;;;;38.44;30.35;100615.13;5033244;28;45388;-78
2022/08/01 11:15:38;;;;;;;;;8.00;7.00;;;;;38.17;30.06;100619.22;5034246;28;45519;-78
2022/08/01 11:18:26;;;;;;;;;6.00;5.67;;;;;37.98;30.09;100619.03;5027707;28;45575;-79
2022/08/01 11:21:00;;;;;;;;;7.00;6.67;;;;;37.61;30.96;100578.50;5021202;28;45548;-79
2022/08/01 11:23:28;;;;;;;;;6.67;6.67;;;;;37.57;30.96;100602.41;5035014;28;46044;-81
2022/08/01 11:25:53;;;;;;;;;10.00;10.00;;;;;37.21;31.35;100615.31;5026836;28;45520;-80
2022/08/01 11:28:24;;;;;;;;;8.33;7.33;;;;;37.08;31.71;100619.13;5027019;28;45483;-79
2022/08/01 11:31:11;;;;;;;;;22.67;22.00;;;;;37.18;31.42;100611.97;5031969;28;45442;-79